Time;durP1;ratioP1;P1;durP2;ratioP2;P2;SDS_P1;SDS_P2;PMS_P1;PMS_P2;Temp;Humidity;BMP_temperature;BMP_pressure;BME280_temperature;BME280_humidity;BME280_pressure;Samples;Min_cycle;Max_cycle;Signal;HPM_P1;HPM_P2
2022/12/07 00:00:18;;;;;;;11.73;1.50;;;4.10;99.90;;;;;;5075080;28;20040;-69
2022/12/07 00:02:44;;;;;;;11.23;1.58;;;4.00;99.90;;;;;;5075296;28;20039;-69
2022/12/07 00:05:09;;;;;;;8.15;1.70;;;4.00;99.90;;;;;;5075211;28;20428;-69
2022/12/07 00:07:35;;;;;;;9.88;1.35;;;4.00;99.90;;;;;;5074972;28;20510;-69
2022/12/07 00:10:00;;;;;;;7.78;1.70;;;4.00;99.90;;;;;;5074865;28;20119;-69
2022/12/07 00:12:26;;;;;;;6.95;1.38;;;4.00;99.90;;;;;;5074870;28;20043;-70
2022/12/07 00:14:51;;;;;;;11.50;2.00;;;4.00;99.90;;;;;;5074724;28;20123;-70
2022/12/07 00:17:17;;;;;;;6.43;1.30;;;3.90;99.90;;;;;;5074797;28;20033;-70
2022/12/07 00:19:43;;;;;;;7.70;1.60;;;3.90;99.90;;;;;;5074669;28;20090;-70
2022/12/07 00:22:08;;;;;;;9.88;1.90;;;3.90;99.90;;;;;;5074699;28;20040;-70
2022/12/07 00:24:34;;;;;;;11.60;1.73;;;4.00;99.90;;;;;;5074559;28;20071;-70
2022/12/07 00:26:59;;;;;;;11.10;1.70;;;4.00;99.90;;;;;;5074890;28;20110;-70
2022/12/07 00:29:25;;;;;;;10.52;1.88;;;4.00;99.90;;;;;;5074584;28;20504;-70
2022/12/07 00:31:50;;;;;;;9.20;1.30;;;4.00;99.90;;;;;;5074547;28;20475;-70
2022/12/07 00:34:19;;;;;;;11.38;1.48;;;4.00;99.90;;;;;;5074663;28;20079;-70
2022/12/07 00:36:44;;;;;;;9.73;1.90;;;3.90;99.90;;;;;;5074418;28;20041;-70
2022/12/07 00:39:10;;;;;;;9.75;1.58;;;4.00;99.90;;;;;;5074327;28;20105;-70
2022/12/07 00:41:36;;;;;;;8.43;1.88;;;4.00;99.90;;;;;;5074632;28;20041;-70
2022/12/07 00:44:01;;;;;;;8.40;1.70;;;3.90;99.90;;;;;;5074539;28;20640;-70
2022/12/07 00:46:27;;;;;;;10.52;1.63;;;4.00;99.90;;;;;;5074401;28;20040;-70
2022/12/07 00:48:54;;;;;;;8.45;1.25;;;3.90;99.90;;;;;;5074269;28;20439;-70
2022/12/07 00:51:23;;;;;;;10.02;1.60;;;3.90;99.90;;;;;;5073495;28;20071;-70
2022/12/07 00:53:49;;;;;;;8.90;1.20;;;4.00;99.90;;;;;;5074251;28;20139;-70
2022/12/07 00:56:21;;;;;;;6.63;1.60;;;3.90;99.90;;;;;;5074376;28;20078;-70
2022/12/07 00:58:58;;;;;;;12.15;1.65;;;3.90;99.90;;;;;;5057441;28;20054;-70
2022/12/07 01:01:27;;;;;;;10.10;1.80;;;3.90;99.90;;;;;;5074028;28;20043;-70
2022/12/07 01:03:52;;;;;;;14.05;1.73;;;3.90;99.90;;;;;;5075008;28;20486;-70
2022/12/07 01:06:20;;;;;;;10.98;2.25;;;3.90;99.90;;;;;;5073896;28;20052;-70
2022/12/07 01:08:46;;;;;;;12.00;1.23;;;3.90;99.90;;;;;;5074123;28;20044;-70
2022/12/07 01:11:14;;;;;;;13.45;2.20;;;4.00;99.90;;;;;;5073793;28;20559;-70
2022/12/07 01:13:40;;;;;;;11.20;1.90;;;3.90;99.90;;;;;;5073720;28;20413;-70
2022/12/07 01:16:07;;;;;;;6.70;1.50;;;3.90;99.90;;;;;;5073758;28;20048;-70
2022/12/07 01:18:35;;;;;;;9.95;1.45;;;4.00;99.90;;;;;;5073620;28;20044;-70
2022/12/07 01:21:03;;;;;;;15.13;1.70;;;3.90;99.90;;;;;;5073620;28;20048;-70
2022/12/07 01:23:30;;;;;;;12.52;1.95;;;3.90;99.90;;;;;;5073754;28;20102;-70
2022/12/07 01:26:04;;;;;;;13.45;1.77;;;3.90;99.90;;;;;;5073790;28;20036;-70
2022/12/07 01:28:30;;;;;;;10.32;1.42;;;4.00;99.90;;;;;;5073703;28;20044;-70
2022/12/07 01:31:01;;;;;;;8.48;1.45;;;3.90;99.90;;;;;;5073420;28;20041;-69
2022/12/07 01:33:28;;;;;;;11.65;1.40;;;3.90;99.90;;;;;;5073329;28;20080;-69
2022/12/07 01:35:54;;;;;;;7.45;1.35;;;3.90;99.90;;;;;;5073340;28;20468;-69
2022/12/07 01:38:20;;;;;;;6.03;1.27;;;3.90;99.90;;;;;;5073434;28;20076;-69
2022/12/07 01:40:45;;;;;;;8.85;1.73;;;4.00;99.90;;;;;;5073456;28;20512;-69
2022/12/07 01:43:18;;;;;;;8.18;1.20;;;4.00;99.90;;;;;;5073164;28;20111;-69
2022/12/07 01:45:44;;;;;;;;;;;4.00;99.90;;;;;;5073562;28;20115;-70
2022/12/07 01:48:12;;;;;;;7.97;1.13;;;4.00;99.90;;;;;;5072966;28;19999;-70
2022/12/07 01:50:40;;;;;;;10.18;1.33;;;4.00;99.90;;;;;;5073076;28;20044;-70
2022/12/07 01:53:08;;;;;;;10.25;1.63;;;4.10;99.90;;;;;;5073229;28;20036;-70
2022/12/07 01:55:39;;;;;;;9.65;1.20;;;4.10;99.90;;;;;;5072839;28;20165;-70
2022/12/07 01:58:05;;;;;;;7.07;1.08;;;4.10;99.90;;;;;;5072853;28;20416;-70
2022/12/07 02:00:31;;;;;;;10.93;1.75;;;4.20;99.90;;;;;;5072824;28;20111;-70
2022/12/07 02:03:19;;;;;;;7.43;0.90;;;4.20;99.90;;;;;;5072588;28;20102;-69
2022/12/07 02:05:46;;;;;;;11.57;1.15;;;4.20;99.90;;;;;;5073809;28;20481;-70
2022/12/07 02:08:13;;;;;;;10.77;1.85;;;4.30;99.90;;;;;;5072909;28;20055;-70
2022/12/07 02:10:38;;;;;;;8.73;1.17;;;4.30;99.90;;;;;;5072619;28;20044;-70
2022/12/07 02:13:17;;;;;;;6.68;0.93;;;4.30;99.90;;;;;;5072847;28;20063;-70
2022/12/07 02:16:11;;;;;;;6.45;1.20;;;4.30;99.90;;;;;;5072854;28;20067;-70
2022/12/07 02:18:59;;;;;;;8.02;1.10;;;4.30;99.90;;;;;;5072558;28;20573;-70
2022/12/07 02:21:46;;;;;;;7.40;1.40;;;4.30;99.90;;;;;;5072424;28;20082;-70
2022/12/07 02:24:35;;;;;;;5.57;1.15;;;4.30;99.90;;;;;;5072587;28;20520;-70
2022/12/07 02:27:21;;;;;;;7.70;1.27;;;4.20;99.90;;;;;;5072367;28;20120;-70
2022/12/07 02:30:07;;;;;;;8.60;1.00;;;4.10;99.90;;;;;;5072592;28;20063;-70
2022/12/07 02:32:32;;;;;;;8.20;1.40;;;4.10;99.90;;;;;;5072352;28;20119;-70
2022/12/07 02:35:05;;;;;;;9.93;1.73;;;4.00;99.90;;;;;;5072165;28;20163;-70
2022/12/07 02:37:48;;;;;;;7.57;1.08;;;4.00;99.90;;;;;;5072221;28;20044;-70
2022/12/07 02:40:27;;;;;;;9.73;1.20;;;4.00;99.90;;;;;;5055780;28;20051;-70
2022/12/07 02:43:19;;;;;;;10.90;1.70;;;4.00;99.90;;;;;;5072157;28;20443;-70
2022/12/07 02:45:47;;;;;;;6.95;1.35;;;4.00;99.90;;;;;;5072411;28;20044;-70
2022/12/07 02:48:15;;;;;;;11.77;1.98;;;4.00;99.90;;;;;;5071960;28;20048;-70
2022/12/07 02:50:52;;;;;;;8.02;1.15;;;4.00;99.90;;;;;;5072265;28;20067;-70
2022/12/07 02:53:36;;;;;;;6.03;1.25;;;4.00;99.90;;;;;;5071942;28;20036;-70
2022/12/07 02:56:06;;;;;;;4.30;0.88;;;4.00;99.90;;;;;;5072238;28;20144;-70
2022/12/07 02:58:54;;;;;;;4.10;1.10;;;3.90;99.90;;;;;;5072013;28;20440;-70
2022/12/07 03:01:28;;;;;;;6.10;1.00;;;4.00;99.90;;;;;;5071929;28;20052;-70
2022/12/07 03:04:35;;;;;;;8.30;1.10;;;3.90;99.90;;;;;;5071844;28;20068;-70
2022/12/07 03:07:10;;;;;;;8.05;1.23;;;3.90;99.90;;;;;;5049852;28;20127;-70
2022/12/07 03:09:57;;;;;;;7.18;1.00;;;3.90;99.90;;;;;;5071867;28;20040;-70
2022/12/07 03:12:31;;;;;;;6.70;1.20;;;3.90;99.90;;;;;;5071818;28;20068;-70
2022/12/07 03:15:06;;;;;;;8.02;1.30;;;3.90;99.90;;;;;;5071356;28;20509;-70
2022/12/07 03:17:36;;;;;;;8.27;1.40;;;3.90;99.90;;;;;;5071832;28;20045;-70
2022/12/07 03:20:05;;;;;;;8.63;1.10;;;3.90;99.90;;;;;;5071701;28;20051;-70
2022/12/07 03:22:34;;;;;;;8.88;1.00;;;3.90;99.90;;;;;;5071682;28;20041;-70
2022/12/07 03:25:05;;;;;;;7.63;1.08;;;4.00;99.90;;;;;;5071597;28;20124;-70
2022/12/07 03:27:36;;;;;;;8.68;1.48;;;4.10;99.90;;;;;;5072545;28;20043;-70
2022/12/07 03:30:06;;;;;;;9.80;1.60;;;4.00;99.90;;;;;;5071621;28;20048;-70
2022/12/07 03:32:43;;;;;;;11.13;1.00;;;4.00;99.90;;;;;;5071856;28;20044;-70
2022/12/07 03:35:43;;;;;;;10.27;1.27;;;4.00;99.90;;;;;;5054857;28;20076;-70
2022/12/07 03:38:15;;;;;;;7.97;1.10;;;4.00;99.90;;;;;;5064766;28;20386;-70
2022/12/07 03:40:50;;;;;;;9.05;0.95;;;3.90;99.90;;;;;;5071551;28;20082;-70
2022/12/07 03:43:17;;;;;;;9.07;1.27;;;3.90;99.90;;;;;;5071417;28;20439;-70
2022/12/07 03:45:47;;;;;;;7.47;1.10;;;3.90;99.90;;;;;;5071445;28;20111;-70
2022/12/07 03:49:08;;;;;;;8.60;1.30;;;3.90;99.90;;;;;;5071403;28;20094;-70
2022/12/07 03:51:48;;;;;;;7.78;1.10;;;3.90;99.90;;;;;;5014529;28;20057;-70
2022/12/07 03:54:22;;;;;;;12.70;1.15;;;3.90;99.90;;;;;;5014059;28;20048;-70
2022/12/07 03:56:50;;;;;;;7.90;0.93;;;3.90;99.90;;;;;;5031087;28;20426;-70
2022/12/07 03:59:16;;;;;;;8.70;0.90;;;3.80;99.90;;;;;;5014031;28;20415;-70
2022/12/07 04:01:44;;;;;;;11.27;1.10;;;3.80;99.90;;;;;;5014066;28;20084;-70
2022/12/07 04:04:10;;;;;;;8.57;0.95;;;3.80;99.90;;;;;;5013967;28;20180;-70
2022/12/07 04:06:35;;;;;;;7.70;1.25;;;3.90;99.90;;;;;;5014282;28;20120;-70
2022/12/07 04:09:01;;;;;;;9.75;1.73;;;3.90;99.90;;;;;;5014089;28;20528;-70
2022/12/07 04:11:26;;;;;;;11.15;1.15;;;3.90;99.90;;;;;;5014182;28;20047;-70
2022/12/07 04:16:36;;;;;;;9.45;1.10;;;3.90;99.90;;;;;;5013886;28;20045;-70
2022/12/07 04:19:02;;;;;;;12.05;1.67;;;3.90;99.90;;;;;;5030305;28;20053;-70
2022/12/07 04:21:27;;;;;;;8.05;1.20;;;3.90;99.90;;;;;;5030421;28;20128;-70
2022/12/07 04:23:53;;;;;;;5.38;0.80;;;3.90;99.90;;;;;;5030272;28;20038;-70
2022/12/07 04:26:18;;;;;;;4.72;0.80;;;3.90;99.90;;;;;;5015632;28;20482;-70
2022/12/07 04:28:44;;;;;;;5.90;1.05;;;3.80;99.90;;;;;;5064296;28;20117;-70
2022/12/07 04:31:09;;;;;;;8.93;1.50;;;3.80;99.90;;;;;;5074580;28;20044;-70
2022/12/07 04:33:36;;;;;;;7.38;0.77;;;3.80;99.90;;;;;;5074462;28;20040;-70
2022/12/07 04:36:01;;;;;;;7.90;1.00;;;3.70;99.90;;;;;;5074499;28;20044;-70
2022/12/07 04:38:27;;;;;;;13.13;1.92;;;3.80;99.90;;;;;;5074404;28;20082;-70
2022/12/07 04:40:53;;;;;;;8.90;1.20;;;3.80;99.90;;;;;;5074375;28;20076;-70
2022/12/07 04:43:18;;;;;;;8.70;1.10;;;3.80;99.90;;;;;;5075430;28;20086;-70
2022/12/07 04:45:47;;;;;;;7.35;1.73;;;3.80;99.90;;;;;;5074303;28;20037;-70
2022/12/07 04:48:13;;;;;;;8.07;1.20;;;3.90;99.90;;;;;;5074168;28;20493;-70
2022/12/07 04:50:39;;;;;;;15.30;1.20;;;3.80;99.90;;;;;;5074488;28;20051;-70
2022/12/07 04:53:04;;;;;;;9.10;1.20;;;3.80;99.90;;;;;;5074178;28;20505;-70
2022/12/07 04:55:30;;;;;;;6.13;0.82;;;3.80;99.90;;;;;;5074085;28;20044;-70
2022/12/07 04:57:55;;;;;;;7.70;1.15;;;3.70;99.90;;;;;;5074028;28;20092;-70
2022/12/07 05:00:21;;;;;;;10.32;1.30;;;3.70;99.90;;;;;;5074080;28;20037;-70
2022/12/07 05:02:46;;;;;;;12.48;1.77;;;3.70;99.90;;;;;;5074249;28;20041;-70
2022/12/07 05:05:12;;;;;;;11.82;1.45;;;3.70;99.90;;;;;;5073864;28;20557;-70
2022/12/07 05:07:38;;;;;;;9.80;1.67;;;3.60;99.90;;;;;;5073886;28;20041;-70
2022/12/07 05:10:04;;;;;;;9.30;1.20;;;3.60;99.90;;;;;;5074147;28;20060;-70
2022/12/07 05:12:30;;;;;;;8.65;1.02;;;3.60;99.90;;;;;;5073833;28;20047;-70
2022/12/07 05:14:55;;;;;;;13.10;1.17;;;3.70;99.90;;;;;;5073985;28;20037;-70
2022/12/07 05:17:21;;;;;;;7.40;0.93;;;3.60;99.90;;;;;;5074027;28;20043;-70
2022/12/07 05:19:46;;;;;;;11.73;1.33;;;3.60;99.90;;;;;;5073627;28;20497;-70
2022/12/07 05:22:13;;;;;;;7.93;1.23;;;3.60;99.90;;;;;;5075489;28;20430;-70
2022/12/07 05:24:38;;;;;;;10.15;1.55;;;3.60;99.90;;;;;;5074757;28;20071;-70
2022/12/07 05:27:04;;;;;;;8.23;1.00;;;3.60;99.90;;;;;;5073502;28;20040;-70
2022/12/07 05:29:29;;;;;;;7.70;1.20;;;3.50;99.90;;;;;;5073482;28;20044;-70
2022/12/07 05:31:55;;;;;;;12.50;1.35;;;3.50;99.90;;;;;;5073453;28;20040;-70
2022/12/07 05:34:21;;;;;;;7.95;2.40;;;3.50;99.90;;;;;;5073301;28;20043;-70
2022/12/07 05:36:46;;;;;;;9.43;2.10;;;3.40;99.90;;;;;;5056198;28;20098;-70
2022/12/07 05:39:12;;;;;;;7.10;2.28;;;3.40;99.90;;;;;;5073232;28;20049;-70
2022/12/07 05:44:21;;;;;;;9.45;1.52;;;3.40;99.90;;;;;;5073416;28;20048;-70
2022/12/07 05:46:47;;;;;;;7.07;1.48;;;3.30;99.90;;;;;;5073253;28;20491;-70
2022/12/07 05:49:12;;;;;;;9.82;1.80;;;3.30;99.90;;;;;;5073084;28;20507;-70
2022/12/07 05:51:38;;;;;;;8.55;1.08;;;3.30;99.90;;;;;;5073013;28;20082;-70
2022/12/07 05:54:04;;;;;;;5.38;1.08;;;3.30;99.90;;;;;;5072875;28;20062;-70
2022/12/07 05:56:29;;;;;;;5.10;1.23;;;3.30;99.90;;;;;;5072933;28;20040;-70
2022/12/07 06:01:39;;;;;;;12.85;1.40;;;3.20;99.90;;;;;;5072841;28;20075;-70
2022/12/07 06:04:05;;;;;;;13.77;1.70;;;3.20;99.90;;;;;;5072696;28;20486;-70
2022/12/07 06:06:31;;;;;;;7.25;1.30;;;3.20;99.90;;;;;;5073030;28;20146;-70
2022/12/07 06:08:56;;;;;;;8.82;1.23;;;3.20;99.90;;;;;;5072938;28;20413;-70
2022/12/07 06:14:06;;;;;;;12.45;1.30;;;3.20;99.90;;;;;;5072572;28;20044;-70
2022/12/07 06:16:31;;;;;;;8.20;1.00;;;3.30;99.90;;;;;;5072540;28;20044;-69
2022/12/07 06:18:57;;;;;;;9.40;0.93;;;3.20;99.90;;;;;;5072435;28;20040;-69
2022/12/07 06:21:22;;;;;;;10.20;1.33;;;3.30;99.90;;;;;;5072430;28;20032;-69
2022/12/07 06:23:48;;;;;;;5.53;1.05;;;3.30;99.90;;;;;;5072603;28;20041;-70
2022/12/07 06:26:14;;;;;;;8.57;1.13;;;3.40;99.90;;;;;;5072365;28;20486;-70
2022/12/07 06:28:40;;;;;;;9.75;1.08;;;3.40;99.90;;;;;;5072318;28;20036;-70
2022/12/07 06:31:06;;;;;;;7.05;1.33;;;3.40;99.90;;;;;;5072513;28;20044;-70
2022/12/07 06:33:31;;;;;;;6.80;1.23;;;3.40;99.90;;;;;;5072176;28;20473;-70
2022/12/07 06:35:57;;;;;;;8.30;1.27;;;3.50;99.90;;;;;;5072451;28;20047;-70
2022/12/07 06:38:22;;;;;;;9.35;1.35;;;3.50;99.90;;;;;;5072110;28;20051;-70
2022/12/07 06:40:48;;;;;;;4.85;1.17;;;3.50;99.90;;;;;;5072149;28;20072;-70
2022/12/07 06:43:14;;;;;;;8.70;1.13;;;3.50;99.90;;;;;;5072398;28;20071;-70
2022/12/07 06:45:41;;;;;;;7.10;1.30;;;3.50;99.90;;;;;;5072221;28;20481;-70
2022/12/07 06:48:06;;;;;;;8.35;0.90;;;3.60;99.90;;;;;;5071989;28;20072;-70
2022/12/07 06:50:32;;;;;;;8.00;1.10;;;3.60;99.90;;;;;;5071515;28;20528;-70
2022/12/07 06:52:57;;;;;;;8.85;1.00;;;3.50;99.90;;;;;;5055416;28;20037;-70
2022/12/07 06:55:23;;;;;;;9.13;1.10;;;3.50;99.90;;;;;;5071890;28;20047;-70
2022/12/07 06:57:49;;;;;;;9.85;1.25;;;3.50;99.90;;;;;;5071864;28;20044;-70
2022/12/07 07:00:15;;;;;;;7.53;1.27;;;3.60;99.90;;;;;;5072183;28;20067;-69
2022/12/07 07:02:40;;;;;;;10.23;1.40;;;3.60;99.90;;;;;;5071930;28;20047;-69
2022/12/07 07:05:06;;;;;;;5.80;1.33;;;3.60;99.90;;;;;;5071874;28;20036;-69
2022/12/07 07:07:32;;;;;;;9.30;1.30;;;3.60;99.90;;;;;;5055357;28;20052;-69
2022/12/07 07:09:57;;;;;;;9.93;1.10;;;3.60;99.90;;;;;;5071837;28;20086;-70
2022/12/07 07:12:23;;;;;;;7.25;1.15;;;3.70;99.90;;;;;;5071810;28;20041;-69
2022/12/07 07:14:48;;;;;;;9.35;1.23;;;3.70;99.90;;;;;;5071750;28;20127;-69
2022/12/07 07:17:14;;;;;;;11.93;1.30;;;3.70;99.90;;;;;;5071774;28;20044;-69
2022/12/07 07:19:40;;;;;;;5.70;1.30;;;3.80;99.90;;;;;;5071648;28;20044;-69
2022/12/07 07:22:06;;;;;;;13.70;1.48;;;3.80;99.90;;;;;;5071722;28;20033;-69
2022/12/07 07:24:31;;;;;;;8.38;1.40;;;3.80;99.90;;;;;;5071661;28;20037;-69
2022/12/07 07:26:57;;;;;;;8.10;1.20;;;3.70;99.90;;;;;;5071636;28;20512;-69
2022/12/07 07:29:22;;;;;;;8.40;1.40;;;3.70;99.90;;;;;;5071926;28;20119;-70
2022/12/07 07:31:48;;;;;;;10.82;1.25;;;3.70;99.90;;;;;;5071655;28;20505;-69
2022/12/07 07:34:13;;;;;;;14.15;1.60;;;3.60;99.90;;;;;;5071539;28;20072;-69
2022/12/07 07:36:39;;;;;;;9.35;1.40;;;3.60;99.90;;;;;;5055223;28;20040;-69
2022/12/07 07:39:05;;;;;;;7.00;1.00;;;3.50;99.90;;;;;;5071577;28;20485;-69
2022/12/07 07:41:34;;;;;;;10.90;1.10;;;3.50;99.90;;;;;;5071762;28;20045;-69
2022/12/07 07:43:59;;;;;;;6.15;1.35;;;3.50;99.90;;;;;;5071373;28;20519;-70
2022/12/07 07:46:25;;;;;;;9.13;1.20;;;3.50;99.90;;;;;;5071338;28;20045;-69
2022/12/07 07:48:50;;;;;;;7.68;1.30;;;3.50;99.90;;;;;;5071480;28;20195;-69
2022/12/07 07:51:16;;;;;;;7.15;1.10;;;3.50;99.90;;;;;;5071440;28;20083;-69
2022/12/07 07:53:41;;;;;;;8.30;1.23;;;3.50;99.90;;;;;;5071326;28;20048;-69
2022/12/07 07:56:07;;;;;;;9.32;1.85;;;3.50;99.90;;;;;;5071655;28;20059;-69
2022/12/07 07:58:32;;;;;;;11.82;1.30;;;3.50;99.90;;;;;;5071290;28;20547;-69
2022/12/07 08:01:04;;;;;;;10.30;1.20;;;3.50;99.90;;;;;;5073730;28;20044;-69
2022/12/07 08:03:29;;;;;;;10.20;1.38;;;3.60;99.90;;;;;;5075044;28;20496;-71
2022/12/07 08:05:55;;;;;;;10.98;1.70;;;3.60;99.90;;;;;;5075053;28;20075;-70
2022/12/07 08:08:20;;;;;;;10.48;1.58;;;3.60;99.90;;;;;;5075279;28;20047;-70
2022/12/07 08:10:46;;;;;;;14.07;1.80;;;3.60;99.90;;;;;;5074976;28;20516;-69
2022/12/07 08:13:13;;;;;;;8.18;1.08;;;3.70;99.90;;;;;;5074953;28;20092;-69
2022/12/07 08:15:40;;;;;;;8.75;1.30;;;3.70;99.90;;;;;;5075030;28;20056;-69
2022/12/07 08:18:07;;;;;;;8.65;1.55;;;3.70;99.90;;;;;;5074739;28;20501;-69
2022/12/07 08:20:34;;;;;;;5.05;1.02;;;3.70;99.90;;;;;;5075021;28;20501;-69
2022/12/07 08:23:00;;;;;;;8.30;1.38;;;3.70;99.90;;;;;;5074965;28;20497;-69
2022/12/07 08:25:27;;;;;;;8.57;1.27;;;3.70;99.90;;;;;;5074653;28;20108;-69
2022/12/07 08:27:53;;;;;;;10.55;1.23;;;3.70;99.90;;;;;;5074906;28;20041;-69
2022/12/07 08:30:19;;;;;;;7.10;1.60;;;3.70;99.90;;;;;;5074645;28;20036;-69
2022/12/07 08:32:46;;;;;;;10.15;1.58;;;3.70;99.90;;;;;;5074528;28;20048;-69
2022/12/07 08:35:12;;;;;;;11.52;1.33;;;3.70;99.90;;;;;;5074423;28;20387;-69
2022/12/07 08:37:38;;;;;;;9.60;1.20;;;3.70;99.90;;;;;;5074720;28;20124;-70
2022/12/07 08:40:05;;;;;;;14.18;1.90;;;3.80;99.90;;;;;;5074348;28;20042;-70
2022/12/07 08:42:37;;;;;;;9.75;1.83;;;3.80;99.90;;;;;;5074421;28;20489;-70
2022/12/07 08:45:08;;;;;;;12.18;1.50;;;3.90;99.90;;;;;;5074296;28;20040;-69
2022/12/07 08:47:37;;;;;;;10.10;1.70;;;3.90;99.90;;;;;;5074278;28;20086;-69
2022/12/07 08:50:04;;;;;;;10.35;1.27;;;3.90;99.90;;;;;;5074271;28;20044;-69
2022/12/07 08:52:31;;;;;;;12.20;1.55;;;3.90;99.90;;;;;;5074443;28;20394;-70
2022/12/07 08:54:58;;;;;;;12.32;1.40;;;3.90;99.90;;;;;;5074090;28;20048;-70
2022/12/07 08:57:23;;;;;;;9.63;1.40;;;3.90;99.90;;;;;;5074110;28;20044;-69
2022/12/07 08:59:49;;;;;;;10.05;1.40;;;3.90;99.90;;;;;;5073992;28;20053;-69
2022/12/07 09:02:15;;;;;;;11.77;1.73;;;3.90;99.90;;;;;;5075573;28;20071;-69
2022/12/07 09:04:40;;;;;;;8.35;1.30;;;3.90;99.90;;;;;;5073950;28;20416;-69
2022/12/07 09:07:06;;;;;;;9.27;1.63;;;3.80;99.90;;;;;;5073922;28;20041;-69
2022/12/07 09:09:31;;;;;;;6.75;1.40;;;3.90;99.90;;;;;;5073901;28;20044;-69
2022/12/07 09:11:57;;;;;;;7.38;1.48;;;3.90;99.90;;;;;;5073016;28;20048;-69
2022/12/07 09:14:23;;;;;;;8.27;1.20;;;3.90;99.90;;;;;;5074022;28;20039;-69
2022/12/07 09:16:49;;;;;;;10.27;1.42;;;3.90;99.90;;;;;;5074038;28;20485;-69
2022/12/07 09:19:14;;;;;;;11.25;1.48;;;3.90;99.90;;;;;;5073606;28;20120;-69
2022/12/07 09:21:40;;;;;;;9.82;1.40;;;3.90;99.90;;;;;;5073638;28;20040;-69
2022/12/07 09:24:06;;;;;;;10.07;1.50;;;3.90;99.90;;;;;;5073811;28;20040;-69
2022/12/07 09:26:31;;;;;;;10.13;1.80;;;3.90;99.90;;;;;;5073859;28;20453;-69
2022/12/07 09:28:57;;;;;;;13.23;1.55;;;3.90;99.90;;;;;;5073783;28;20059;-69
2022/12/07 09:31:22;;;;;;;11.30;1.60;;;4.10;99.90;;;;;;5073490;28;20037;-69
2022/12/07 09:33:56;;;;;;;10.55;1.58;;;4.20;99.90;;;;;;5073328;28;20072;-69
2022/12/07 09:36:22;;;;;;;13.95;1.88;;;4.30;99.90;;;;;;5073425;28;20047;-69
2022/12/07 09:38:47;;;;;;;7.38;1.33;;;4.40;99.90;;;;;;5073257;28;20048;-69
2022/12/07 09:41:13;;;;;;;8.32;1.58;;;4.50;99.90;;;;;;5073530;28;20485;-70
2022/12/07 09:43:40;;;;;;;7.45;1.13;;;4.60;99.90;;;;;;5073173;28;20053;-70
2022/12/07 09:46:06;;;;;;;8.65;1.58;;;4.60;99.90;;;;;;5073039;28;20058;-70
2022/12/07 09:48:37;;;;;;;5.68;1.60;;;4.60;99.90;;;;;;5073168;28;20115;-70
2022/12/07 09:51:12;;;;;;;11.80;2.25;;;4.60;99.90;;;;;;5073090;28;20052;-70
2022/12/07 09:53:39;;;;;;;5.93;1.27;;;4.60;99.90;;;;;;5073381;28;20041;-70
2022/12/07 09:56:05;;;;;;;9.07;1.63;;;4.60;99.90;;;;;;5073013;28;20048;-70
2022/12/07 09:58:32;;;;;;;12.35;2.13;;;4.60;99.90;;;;;;5073063;28;20508;-70
2022/12/07 10:01:07;;;;;;;8.43;1.70;;;4.60;99.90;;;;;;5072859;28;20044;-70
2022/12/07 10:03:35;;;;;;;11.75;1.83;;;4.60;99.90;;;;;;5072811;28;20114;-70
2022/12/07 10:06:01;;;;;;;10.23;1.90;;;4.60;99.90;;;;;;5072778;28;20161;-70
2022/12/07 10:08:27;;;;;;;10.02;1.40;;;4.60;99.90;;;;;;5072743;28;20115;-70
2022/12/07 10:10:56;;;;;;;8.18;1.38;;;4.60;99.90;;;;;;5072665;28;20070;-70
2022/12/07 10:13:38;;;;;;;12.57;1.75;;;4.60;99.90;;;;;;5072569;28;20075;-70
2022/12/07 10:16:04;;;;;;;7.68;1.40;;;4.70;99.90;;;;;;5072889;28;20084;-71
2022/12/07 10:18:37;;;;;;;9.35;1.30;;;4.70;99.90;;;;;;5072684;28;20080;-71
2022/12/07 10:21:11;;;;;;;6.72;1.40;;;4.80;99.90;;;;;;5072475;28;20413;-70
2022/12/07 10:23:40;;;;;;;7.50;1.00;;;4.80;99.90;;;;;;5072626;28;20048;-68
2022/12/07 10:26:26;;;;;;;10.45;1.70;;;4.90;99.90;;;;;;5072384;28;20041;-68
2022/12/07 10:28:52;;;;;;;5.90;1.60;;;5.00;99.90;;;;;;5072647;28;20565;-68
2022/12/07 10:31:21;;;;;;;7.03;1.25;;;5.00;99.90;;;;;;5072749;28;20130;-68
2022/12/07 10:33:53;;;;;;;8.40;1.10;;;5.10;99.90;;;;;;5072349;28;20520;-70
2022/12/07 10:36:26;;;;;;;10.63;1.63;;;5.20;99.90;;;;;;5072411;28;20511;-70
2022/12/07 10:39:13;;;;;;;8.48;1.27;;;5.30;99.90;;;;;;5072375;28;20121;-70
2022/12/07 10:41:57;;;;;;;8.93;1.20;;;5.30;99.90;;;;;;5065441;28;20048;-70
2022/12/07 10:44:34;;;;;;;6.70;1.25;;;5.50;99.90;;;;;;5072418;28;20129;-70
2022/12/07 10:47:30;;;;;;;7.85;1.23;;;5.50;99.90;;;;;;5072020;28;20040;-70
2022/12/07 10:50:24;;;;;;;8.60;1.00;;;5.70;99.90;;;;;;5072141;28;20040;-70
2022/12/07 10:53:14;;;;;;;10.90;1.30;;;5.70;99.90;;;;;;5072052;28;20123;-70
2022/12/07 10:55:48;;;;;;;6.47;1.00;;;5.70;99.90;;;;;;5072194;28;20558;-70
2022/12/07 10:58:26;;;;;;;9.68;1.08;;;5.70;99.90;;;;;;5071949;28;20544;-70
2022/12/07 11:01:05;;;;;;;12.07;1.20;;;5.70;99.90;;;;;;5072027;28;20544;-70
2022/12/07 11:03:59;;;;;;;7.30;1.40;;;5.70;99.90;;;;;;5072133;28;20069;-70
2022/12/07 11:06:40;;;;;;;6.63;1.00;;;5.80;99.90;;;;;;5071904;28;20040;-71
2022/12/07 11:09:40;;;;;;;9.85;1.33;;;5.80;99.90;;;;;;5072156;28;20040;-71
2022/12/07 11:12:20;;;;;;;7.40;1.33;;;5.90;99.90;;;;;;5071873;28;20513;-70
2022/12/07 11:14:55;;;;;;;7.47;1.05;;;5.90;99.90;;;;;;5071776;28;20040;-71
2022/12/07 11:17:58;;;;;;;9.05;1.50;;;6.00;99.90;;;;;;5071780;28;20041;-71
2022/12/07 11:20:52;;;;;;;9.73;1.13;;;6.00;99.90;;;;;;5059460;28;20059;-71
2022/12/07 11:23:43;;;;;;;7.15;1.08;;;6.00;99.90;;;;;;5071860;28;20041;-71
2022/12/07 11:26:14;;;;;;;10.20;1.92;;;6.00;99.90;;;;;;5071896;28;20079;-70
2022/12/07 11:29:03;;;;;;;7.03;1.48;;;6.00;99.90;;;;;;5071671;28;20120;-70
2022/12/07 11:31:52;;;;;;;8.13;1.42;;;6.00;99.90;;;;;;5051787;28;20102;-70
2022/12/07 11:34:24;;;;;;;5.90;1.27;;;6.00;99.90;;;;;;5071609;28;20078;-70
2022/12/07 11:36:53;;;;;;;9.07;1.20;;;6.00;99.90;;;;;;5075312;28;20044;-73
2022/12/07 11:39:28;;;;;;;9.93;1.35;;;6.00;99.90;;;;;;5075518;28;20043;-71
2022/12/07 11:42:15;;;;;;;6.00;1.10;;;6.10;99.90;;;;;;5076883;28;20051;-71
2022/12/07 11:44:53;;;;;;;6.25;1.33;;;6.20;99.90;;;;;;5075754;28;20489;-70
2022/12/07 11:47:18;;;;;;;6.75;1.20;;;6.20;99.90;;;;;;5075393;28;20051;-70
2022/12/07 11:49:50;;;;;;;10.95;1.55;;;6.10;99.90;;;;;;5075676;28;20041;-70
2022/12/07 11:52:43;;;;;;;8.00;1.65;;;6.30;99.90;;;;;;5075375;28;20051;-70
2022/12/07 11:55:39;;;;;;;6.27;1.27;;;6.50;99.90;;;;;;5075614;28;20127;-71
2022/12/07 11:58:37;;;;;;;8.55;1.27;;;6.70;99.90;;;;;;5075093;28;20045;-71
2022/12/07 12:01:23;;;;;;;6.93;1.13;;;6.90;99.90;;;;;;5075224;28;20493;-71
2022/12/07 12:03:59;;;;;;;8.32;1.17;;;7.00;99.90;;;;;;5075379;28;20044;-71
2022/12/07 12:06:24;;;;;;;8.65;1.60;;;7.30;99.90;;;;;;5075122;28;20036;-70
2022/12/07 12:09:23;;;;;;;9.82;1.42;;;7.50;99.90;;;;;;5075034;28;20036;-70
2022/12/07 12:12:01;;;;;;;4.53;1.00;;;7.60;99.90;;;;;;5075258;28;20044;-71
2022/12/07 12:14:46;;;;;;;8.05;1.50;;;7.60;99.90;;;;;;5075146;28;20390;-71
2022/12/07 12:17:20;;;;;;;9.05;1.65;;;7.50;99.90;;;;;;5074918;28;20078;-71
2022/12/07 12:20:14;;;;;;;8.00;1.10;;;7.40;99.90;;;;;;5074857;28;20055;-71
2022/12/07 12:22:43;;;;;;;9.00;1.60;;;7.50;99.90;;;;;;5075065;28;20597;-71
2022/12/07 12:25:45;;;;;;;7.70;1.33;;;7.60;99.90;;;;;;5074661;28;20041;-70
2022/12/07 12:28:42;;;;;;;8.18;1.17;;;7.70;99.90;;;;;;5061913;28;20049;-70
2022/12/07 12:31:28;;;;;;;15.05;2.70;;;8.10;99.90;;;;;;5075413;28;20116;-71
2022/12/07 12:34:00;;;;;;;13.18;1.60;;;9.00;99.90;;;;;;5074604;28;20041;-71
2022/12/07 12:36:34;;;;;;;9.02;1.50;;;9.80;99.90;;;;;;5074839;28;20040;-70
2022/12/07 12:39:14;;;;;;;6.18;1.20;;;10.00;99.90;;;;;;5074457;28;20127;-70
2022/12/07 12:42:05;;;;;;;8.77;2.85;;;9.80;99.90;;;;;;5074491;28;20484;-71
2022/12/07 12:44:32;;;;;;;9.75;1.42;;;9.30;99.90;;;;;;5074850;28;20055;-70
2022/12/07 12:47:02;;;;;;;8.10;1.60;;;8.80;99.90;;;;;;5072872;28;20052;-70
2022/12/07 12:49:28;;;;;;;9.57;2.10;;;8.30;99.90;;;;;;5057577;28;20040;-70
2022/12/07 12:51:56;;;;;;;7.88;2.00;;;7.90;99.90;;;;;;5057531;28;20125;-70
2022/12/07 12:54:25;;;;;;;6.20;1.08;;;7.50;99.90;;;;;;5074155;28;20045;-70
2022/12/07 12:57:05;;;;;;;6.50;1.23;;;7.20;99.90;;;;;;5074153;28;20098;-70
2022/12/07 12:59:33;;;;;;;3.35;0.77;;;6.90;99.90;;;;;;5074193;28;20070;-70
2022/12/07 13:02:21;;;;;;;3.28;0.68;;;6.70;99.90;;;;;;5074043;28;20044;-70
2022/12/07 13:05:12;;;;;;;4.72;0.80;;;6.50;99.90;;;;;;5074008;28;20052;-70
2022/12/07 13:07:44;;;;;;;5.57;0.80;;;6.30;99.90;;;;;;5073988;28;20145;-70
2022/12/07 13:10:28;;;;;;;3.10;0.40;;;6.10;99.90;;;;;;5074252;28;20062;-71
2022/12/07 13:13:13;;;;;;;1.75;0.40;;;5.90;99.90;;;;;;5073889;28;20077;-70
2022/12/07 13:15:54;;;;;;;3.05;0.75;;;5.80;99.90;;;;;;5073753;28;20044;-70
2022/12/07 13:18:32;;;;;;;2.45;0.50;;;5.60;99.90;;;;;;5073726;28;20651;-70
2022/12/07 13:20:58;;;;;;;5.00;0.80;;;5.60;99.90;;;;;;5073725;28;20093;-70
2022/12/07 13:23:42;;;;;;;2.28;0.40;;;5.50;99.90;;;;;;5073593;28;20052;-70
2022/12/07 13:26:17;;;;;;;2.53;0.63;;;5.40;99.90;;;;;;5073636;28;20497;-70